sensor_id;sensor_type;location;lat;lon;timestamp;pressure;altitude;pressure_sealevel;temperature;humidity
10115;BME280;5097;43.260;27.812;2023-09-08T00:00:15;100514.03;;;18.79;65.63
10115;BME280;5097;43.260;27.812;2023-09-08T00:02:59;100541.53;;;18.92;65.51
10115;BME280;5097;43.260;27.812;2023-09-08T00:05:43;100492.53;;;18.69;65.15
10115;BME280;5097;43.260;27.812;2023-09-08T00:08:27;100487.19;;;18.69;64.86
10115;BME280;5097;43.260;27.812;2023-09-08T00:11:12;100512.78;;;18.83;64.95
10115;BME280;5097;43.260;27.812;2023-09-08T00:13:57;100522.78;;;18.92;64.54
10115;BME280;5097;43.260;27.812;2023-09-08T00:16:42;100519.00;;;18.83;64.46
10115;BME280;5097;43.260;27.812;2023-09-08T00:19:26;100525.72;;;18.89;64.16
10115;BME280;5097;43.260;27.812;2023-09-08T00:22:10;100477.69;;;18.65;64.00
10115;BME280;5097;43.260;27.812;2023-09-08T00:24:55;100514.50;;;18.84;64.11
10115;BME280;5097;43.260;27.812;2023-09-08T00:27:39;100506.13;;;18.77;63.84
10115;BME280;5097;43.260;27.812;2023-09-08T00:30:24;100471.00;;;18.59;63.59
10115;BME280;5097;43.260;27.812;2023-09-08T00:33:09;100515.22;;;18.86;63.40
10115;BME280;5097;43.260;27.812;2023-09-08T00:35:55;100517.44;;;18.92;63.22
10115;BME280;5097;43.260;27.812;2023-09-08T00:38:40;100506.47;;;18.84;63.06
10115;BME280;5097;43.260;27.812;2023-09-08T00:41:24;100512.91;;;18.92;62.86
10115;BME280;5097;43.260;27.812;2023-09-08T00:44:08;100495.28;;;18.90;62.69
10115;BME280;5097;43.260;27.812;2023-09-08T00:46:56;100467.63;;;18.57;62.45
10115;BME280;5097;43.260;27.812;2023-09-08T00:49:40;100515.72;;;18.91;62.02
10115;BME280;5097;43.260;27.812;2023-09-08T00:52:24;100440.66;;;18.49;62.26
10115;BME280;5097;43.260;27.812;2023-09-08T00:55:14;100499.88;;;18.88;61.71
10115;BME280;5097;43.260;27.812;2023-09-08T00:58:00;100506.31;;;19.08;61.46
10115;BME280;5097;43.260;27.812;2023-09-08T01:00:44;100488.44;;;18.86;61.31
10115;BME280;5097;43.260;27.812;2023-09-08T01:03:31;100511.22;;;19.24;60.63
10115;BME280;5097;43.260;27.812;2023-09-08T01:06:16;100501.75;;;19.20;60.88
10115;BME280;5097;43.260;27.812;2023-09-08T01:09:00;100501.78;;;19.08;60.78
10115;BME280;5097;43.260;27.812;2023-09-08T01:11:45;100469.13;;;18.93;60.59
10115;BME280;5097;43.260;27.812;2023-09-08T01:14:31;100482.72;;;19.02;60.45
10115;BME280;5097;43.260;27.812;2023-09-08T01:17:15;100465.34;;;18.96;60.66
10115;BME280;5097;43.260;27.812;2023-09-08T01:20:04;100502.25;;;19.14;60.64
10115;BME280;5097;43.260;27.812;2023-09-08T01:23:02;100468.75;;;18.98;60.71
10115;BME280;5097;43.260;27.812;2023-09-08T01:25:53;100510.44;;;19.12;60.92
10115;BME280;5097;43.260;27.812;2023-09-08T01:28:40;100515.31;;;19.07;61.27
10115;BME280;5097;43.260;27.812;2023-09-08T01:31:25;100473.88;;;18.79;61.27
10115;BME280;5097;43.260;27.812;2023-09-08T01:34:12;100510.81;;;19.07;61.29
10115;BME280;5097;43.260;27.812;2023-09-08T01:36:57;100503.75;;;19.06;61.11
10115;BME280;5097;43.260;27.812;2023-09-08T01:39:42;100476.78;;;18.87;60.97
10115;BME280;5097;43.260;27.812;2023-09-08T01:42:28;100461.00;;;18.72;61.20
10115;BME280;5097;43.260;27.812;2023-09-08T01:45:12;100476.44;;;18.91;60.98
10115;BME280;5097;43.260;27.812;2023-09-08T01:47:56;100475.06;;;18.86;61.02
10115;BME280;5097;43.260;27.812;2023-09-08T01:50:41;100507.75;;;19.12;60.99
10115;BME280;5097;43.260;27.812;2023-09-08T01:53:25;100506.38;;;19.18;60.93
10115;BME280;5097;43.260;27.812;2023-09-08T01:56:09;100468.00;;;18.96;60.69
10115;BME280;5097;43.260;27.812;2023-09-08T01:58:55;100501.78;;;19.08;61.21
10115;BME280;5097;43.260;27.812;2023-09-08T02:01:39;100470.22;;;18.91;61.13
10115;BME280;5097;43.260;27.812;2023-09-08T02:04:23;100507.81;;;19.22;60.78
10115;BME280;5097;43.260;27.812;2023-09-08T02:07:08;100498.41;;;19.06;61.18
10115;BME280;5097;43.260;27.812;2023-09-08T02:09:52;100503.00;;;19.16;60.86
10115;BME280;5097;43.260;27.812;2023-09-08T02:12:36;100505.91;;;19.13;61.02
10115;BME280;5097;43.260;27.812;2023-09-08T02:15:22;100513.22;;;19.11;61.22
10115;BME280;5097;43.260;27.812;2023-09-08T02:18:07;100471.16;;;19.01;60.65
10115;BME280;5097;43.260;27.812;2023-09-08T02:21:11;100477.75;;;18.97;61.01
10115;BME280;5097;43.260;27.812;2023-09-08T02:23:55;100464.22;;;18.99;60.87
10115;BME280;5097;43.260;27.812;2023-09-08T02:26:40;100505.88;;;19.24;60.77
10115;BME280;5097;43.260;27.812;2023-09-08T02:29:25;100477.69;;;19.08;60.92
10115;BME280;5097;43.260;27.812;2023-09-08T02:32:11;100456.94;;;19.01;60.54
10115;BME280;5097;43.260;27.812;2023-09-08T02:34:56;100492.19;;;19.06;61.31
10115;BME280;5097;43.260;27.812;2023-09-08T02:37:41;100495.72;;;19.06;61.52
10115;BME280;5097;43.260;27.812;2023-09-08T02:40:25;100446.63;;;18.73;61.73
10115;BME280;5097;43.260;27.812;2023-09-08T02:43:09;100490.38;;;19.06;61.71
10115;BME280;5097;43.260;27.812;2023-09-08T02:45:54;100452.97;;;18.72;61.85
10115;BME280;5097;43.260;27.812;2023-09-08T02:48:40;100499.44;;;18.94;61.98
10115;BME280;5097;43.260;27.812;2023-09-08T02:51:24;100495.28;;;18.79;62.04
10115;BME280;5097;43.260;27.812;2023-09-08T02:54:08;100445.47;;;18.55;62.07
10115;BME280;5097;43.260;27.812;2023-09-08T02:56:53;100431.38;;;18.53;62.09
10115;BME280;5097;43.260;27.812;2023-09-08T02:59:37;100441.34;;;18.62;62.06
10115;BME280;5097;43.260;27.812;2023-09-08T03:02:24;100440.66;;;18.49;62.04
10115;BME280;5097;43.260;27.812;2023-09-08T03:05:10;100443.53;;;18.57;62.08
10115;BME280;5097;43.260;27.812;2023-09-08T03:07:55;100420.00;;;18.39;62.16
10115;BME280;5097;43.260;27.812;2023-09-08T03:10:41;100441.88;;;18.45;62.04
10115;BME280;5097;43.260;27.812;2023-09-08T03:13:25;100483.63;;;18.68;62.13
10115;BME280;5097;43.260;27.812;2023-09-08T03:16:11;100440.13;;;18.55;62.03
10115;BME280;5097;43.260;27.812;2023-09-08T03:18:55;100478.00;;;18.83;62.01
10115;BME280;5097;43.260;27.812;2023-09-08T03:21:40;100477.78;;;18.74;62.09
10115;BME280;5097;43.260;27.812;2023-09-08T03:24:25;100487.88;;;18.82;61.85
10115;BME280;5097;43.260;27.812;2023-09-08T03:27:09;100477.31;;;18.69;62.38
10115;BME280;5097;43.260;27.812;2023-09-08T03:29:53;100485.34;;;18.69;62.29
10115;BME280;5097;43.260;27.812;2023-09-08T03:32:38;100493.41;;;18.58;62.62
10115;BME280;5097;43.260;27.812;2023-09-08T03:35:22;100458.28;;;18.51;62.59
10115;BME280;5097;43.260;27.812;2023-09-08T03:38:07;100489.50;;;18.62;62.75
10115;BME280;5097;43.260;27.812;2023-09-08T03:40:51;100480.72;;;18.60;62.67
10115;BME280;5097;43.260;27.812;2023-09-08T03:43:36;100495.78;;;18.72;62.53
10115;BME280;5097;43.260;27.812;2023-09-08T03:46:20;100488.56;;;18.84;62.34
10115;BME280;5097;43.260;27.812;2023-09-08T03:49:04;100476.84;;;18.64;62.64
10115;BME280;5097;43.260;27.812;2023-09-08T03:51:50;100489.59;;;18.72;62.45
10115;BME280;5097;43.260;27.812;2023-09-08T03:54:35;100490.44;;;18.72;62.66
10115;BME280;5097;43.260;27.812;2023-09-08T03:57:19;100485.94;;;18.73;62.64
10115;BME280;5097;43.260;27.812;2023-09-08T04:00:04;100454.28;;;18.34;63.11
10115;BME280;5097;43.260;27.812;2023-09-08T04:02:56;100494.97;;;18.49;63.33
10115;BME280;5097;43.260;27.812;2023-09-08T04:05:40;100489.19;;;18.33;63.51
10115;BME280;5097;43.260;27.812;2023-09-08T04:08:25;100495.13;;;18.25;64.29
10115;BME280;5097;43.260;27.812;2023-09-08T04:11:11;100498.78;;;18.35;64.26
10115;BME280;5097;43.260;27.812;2023-09-08T04:13:54;100501.69;;;18.32;64.52
10115;BME280;5097;43.260;27.812;2023-09-08T04:16:38;100479.31;;;18.33;64.10
10115;BME280;5097;43.260;27.812;2023-09-08T04:19:22;100499.97;;;18.42;64.66
10115;BME280;5097;43.260;27.812;2023-09-08T04:22:07;100506.41;;;18.63;64.29
10115;BME280;5097;43.260;27.812;2023-09-08T04:24:50;100472.13;;;18.45;64.32
10115;BME280;5097;43.260;27.812;2023-09-08T04:27:37;100475.63;;;18.57;64.31
10115;BME280;5097;43.260;27.812;2023-09-08T04:30:21;100523.88;;;18.89;63.97
10115;BME280;5097;43.260;27.812;2023-09-08T04:33:05;100522.03;;;18.90;64.22
10115;BME280;5097;43.260;27.812;2023-09-08T04:35:49;100518.25;;;18.92;64.28
10115;BME280;5097;43.260;27.812;2023-09-08T04:38:33;100517.84;;;19.08;64.23
10115;BME280;5097;43.260;27.812;2023-09-08T04:41:17;100512.59;;;19.18;64.25
10115;BME280;5097;43.260;27.812;2023-09-08T04:44:03;100511.38;;;19.43;64.06
10115;BME280;5097;43.260;27.812;2023-09-08T04:46:48;100511.84;;;19.49;64.23
10115;BME280;5097;43.260;27.812;2023-09-08T04:49:32;100520.72;;;19.70;64.14
10115;BME280;5097;43.260;27.812;2023-09-08T04:52:17;100517.53;;;19.76;64.16
10115;BME280;5097;43.260;27.812;2023-09-08T04:55:01;100516.50;;;19.89;64.22
10115;BME280;5097;43.260;27.812;2023-09-08T04:57:46;100517.22;;;19.91;64.81
10115;BME280;5097;43.260;27.812;2023-09-08T05:00:31;100518.56;;;20.06;65.15
10115;BME280;5097;43.260;27.812;2023-09-08T05:03:17;100517.13;;;20.33;64.91
10115;BME280;5097;43.260;27.812;2023-09-08T05:06:01;100478.25;;;20.18;66.12
10115;BME280;5097;43.260;27.812;2023-09-08T05:08:45;100524.00;;;20.57;66.15
10115;BME280;5097;43.260;27.812;2023-09-08T05:11:29;100474.75;;;20.27;67.10
10115;BME280;5097;43.260;27.812;2023-09-08T05:14:13;100515.97;;;20.67;67.54
10115;BME280;5097;43.260;27.812;2023-09-08T05:16:59;100499.75;;;20.68;68.07
10115;BME280;5097;43.260;27.812;2023-09-08T05:19:44;100515.34;;;20.94;68.39
10115;BME280;5097;43.260;27.812;2023-09-08T05:22:28;100522.53;;;20.84;69.60
10115;BME280;5097;43.260;27.812;2023-09-08T05:25:12;100507.28;;;20.94;69.90
10115;BME280;5097;43.260;27.812;2023-09-08T05:27:56;100510.97;;;21.13;70.47
10115;BME280;5097;43.260;27.812;2023-09-08T05:30:40;100519.19;;;21.21;70.87
10115;BME280;5097;43.260;27.812;2023-09-08T05:33:26;100519.03;;;21.32;71.43
10115;BME280;5097;43.260;27.812;2023-09-08T05:36:10;100513.22;;;21.27;72.01
10115;BME280;5097;43.260;27.812;2023-09-08T05:38:58;100523.13;;;21.36;73.27
10115;BME280;5097;43.260;27.812;2023-09-08T05:41:42;100513.78;;;21.40;72.94
10115;BME280;5097;43.260;27.812;2023-09-08T05:44:26;100532.00;;;21.86;72.26
10115;BME280;5097;43.260;27.812;2023-09-08T05:47:10;100504.75;;;21.61;73.51
10115;BME280;5097;43.260;27.812;2023-09-08T05:49:55;100531.28;;;21.93;73.94
10115;BME280;5097;43.260;27.812;2023-09-08T05:52:40;100520.78;;;22.00;74.45
10115;BME280;5097;43.260;27.812;2023-09-08T05:55:24;100498.78;;;21.67;75.81
10115;BME280;5097;43.260;27.812;2023-09-08T05:58:09;100508.31;;;21.99;74.75
10115;BME280;5097;43.260;27.812;2023-09-08T06:00:53;100535.19;;;22.19;74.38
10115;BME280;5097;43.260;27.812;2023-09-08T06:03:37;100534.03;;;22.21;74.79
10115;BME280;5097;43.260;27.812;2023-09-08T06:06:23;100543.31;;;22.47;74.21
10115;BME280;5097;43.260;27.812;2023-09-08T06:09:07;100505.38;;;22.30;73.69
10115;BME280;5097;43.260;27.812;2023-09-08T06:11:55;100542.59;;;22.72;73.39
10115;BME280;5097;43.260;27.812;2023-09-08T06:14:39;100545.19;;;23.10;71.86
10115;BME280;5097;43.260;27.812;2023-09-08T06:17:26;100550.78;;;22.81;72.90
10115;BME280;5097;43.260;27.812;2023-09-08T06:20:11;100546.78;;;22.85;73.41
10115;BME280;5097;43.260;27.812;2023-09-08T06:22:57;100552.88;;;22.87;73.96
10115;BME280;5097;43.260;27.812;2023-09-08T06:25:41;100544.16;;;22.93;73.80
10115;BME280;5097;43.260;27.812;2023-09-08T06:28:25;100556.56;;;23.14;73.08
10115;BME280;5097;43.260;27.812;2023-09-08T06:31:09;100546.16;;;23.19;72.92
10115;BME280;5097;43.260;27.812;2023-09-08T06:33:56;100556.63;;;23.22;73.62
10115;BME280;5097;43.260;27.812;2023-09-08T06:36:40;100560.72;;;23.26;74.09
10115;BME280;5097;43.260;27.812;2023-09-08T06:39:26;100544.50;;;23.62;72.83
10115;BME280;5097;43.260;27.812;2023-09-08T06:42:11;100527.06;;;23.74;72.20
10115;BME280;5097;43.260;27.812;2023-09-08T06:45:04;100560.69;;;24.06;71.51
10115;BME280;5097;43.260;27.812;2023-09-08T06:47:49;100563.59;;;24.39;70.36
10115;BME280;5097;43.260;27.812;2023-09-08T06:50:38;100546.91;;;24.87;69.20
10115;BME280;5097;43.260;27.812;2023-09-08T06:53:23;100521.59;;;24.96;67.49
10115;BME280;5097;43.260;27.812;2023-09-08T06:56:08;100548.91;;;24.76;67.50
10115;BME280;5097;43.260;27.812;2023-09-08T06:58:53;100520.91;;;24.86;66.31
10115;BME280;5097;43.260;27.812;2023-09-08T07:01:38;100555.94;;;24.61;66.48
10115;BME280;5097;43.260;27.812;2023-09-08T07:04:23;100564.25;;;24.41;66.61
10115;BME280;5097;43.260;27.812;2023-09-08T07:07:08;100556.97;;;23.99;65.81
10115;BME280;5097;43.260;27.812;2023-09-08T07:09:54;100547.28;;;23.70;64.36
10115;BME280;5097;43.260;27.812;2023-09-08T07:12:40;100586.56;;;23.55;63.69
10115;BME280;5097;43.260;27.812;2023-09-08T07:15:25;100591.34;;;23.25;66.82
10115;BME280;5097;43.260;27.812;2023-09-08T07:18:09;100579.44;;;21.67;80.67
10115;BME280;5097;43.260;27.812;2023-09-08T07:20:53;100563.44;;;21.17;85.73
10115;BME280;5097;43.260;27.812;2023-09-08T07:23:37;100570.72;;;20.85;85.00
10115;BME280;5097;43.260;27.812;2023-09-08T07:26:23;100585.03;;;21.05;81.38
10115;BME280;5097;43.260;27.812;2023-09-08T07:29:09;100572.38;;;21.37;78.31
10115;BME280;5097;43.260;27.812;2023-09-08T07:31:54;100528.22;;;21.10;78.30
10115;BME280;5097;43.260;27.812;2023-09-08T07:34:38;100573.50;;;21.24;78.61
10115;BME280;5097;43.260;27.812;2023-09-08T07:37:23;100573.91;;;21.30;79.08
10115;BME280;5097;43.260;27.812;2023-09-08T07:40:09;100577.03;;;21.25;80.75
10115;BME280;5097;43.260;27.812;2023-09-08T07:42:53;100586.34;;;21.31;81.83
10115;BME280;5097;43.260;27.812;2023-09-08T07:45:39;100577.59;;;21.38;81.48
10115;BME280;5097;43.260;27.812;2023-09-08T07:48:23;100596.72;;;21.74;81.14
10115;BME280;5097;43.260;27.812;2023-09-08T07:51:08;100608.16;;;21.76;80.36
10115;BME280;5097;43.260;27.812;2023-09-08T07:53:52;100604.63;;;21.76;81.51
10115;BME280;5097;43.260;27.812;2023-09-08T07:56:38;100591.06;;;21.68;84.50
10115;BME280;5097;43.260;27.812;2023-09-08T07:59:23;100610.19;;;21.65;84.60
10115;BME280;5097;43.260;27.812;2023-09-08T08:02:08;100586.53;;;21.58;84.28
10115;BME280;5097;43.260;27.812;2023-09-08T08:04:53;100594.72;;;21.96;82.42
10115;BME280;5097;43.260;27.812;2023-09-08T08:07:38;100587.28;;;22.18;83.22
10115;BME280;5097;43.260;27.812;2023-09-08T08:10:22;100591.38;;;22.22;81.37
10115;BME280;5097;43.260;27.812;2023-09-08T08:13:06;100583.28;;;22.41;80.63
10115;BME280;5097;43.260;27.812;2023-09-08T08:15:50;100551.56;;;22.35;80.60
10115;BME280;5097;43.260;27.812;2023-09-08T08:18:35;100593.06;;;22.98;79.25
10115;BME280;5097;43.260;27.812;2023-09-08T08:21:20;100598.84;;;23.03;79.76
10115;BME280;5097;43.260;27.812;2023-09-08T08:24:05;100590.75;;;22.85;79.56
10115;BME280;5097;43.260;27.812;2023-09-08T08:26:49;100602.84;;;23.27;78.22
10115;BME280;5097;43.260;27.812;2023-09-08T08:29:34;100583.59;;;22.94;78.72
10115;BME280;5097;43.260;27.812;2023-09-08T08:32:18;100597.22;;;23.38;78.11
10115;BME280;5097;43.260;27.812;2023-09-08T08:35:04;100606.34;;;23.09;79.02
10115;BME280;5097;43.260;27.812;2023-09-08T08:37:48;100570.59;;;22.89;78.82
10115;BME280;5097;43.260;27.812;2023-09-08T08:40:32;100602.13;;;23.25;78.36
10115;BME280;5097;43.260;27.812;2023-09-08T08:43:17;100601.06;;;23.18;78.20
10115;BME280;5097;43.260;27.812;2023-09-08T08:46:02;100604.59;;;23.18;78.59
10115;BME280;5097;43.260;27.812;2023-09-08T08:48:46;100587.75;;;22.88;78.57
10115;BME280;5097;43.260;27.812;2023-09-08T08:51:34;100605.63;;;23.07;78.73
10115;BME280;5097;43.260;27.812;2023-09-08T08:54:19;100599.59;;;23.23;77.18
10115;BME280;5097;43.260;27.812;2023-09-08T08:57:04;100604.47;;;23.10;77.45
10115;BME280;5097;43.260;27.812;2023-09-08T08:59:49;100599.84;;;23.30;77.04
10115;BME280;5097;43.260;27.812;2023-09-08T09:02:34;100578.41;;;23.47;76.55
10115;BME280;5097;43.260;27.812;2023-09-08T09:05:19;100593.66;;;23.56;75.10
10115;BME280;5097;43.260;27.812;2023-09-08T09:08:06;100587.97;;;23.95;73.55
10115;BME280;5097;43.260;27.812;2023-09-08T09:10:50;100592.69;;;24.19;72.02
10115;BME280;5097;43.260;27.812;2023-09-08T09:13:35;100591.00;;;24.53;71.58
10115;BME280;5097;43.260;27.812;2023-09-08T09:16:19;100595.91;;;24.92;70.71
10115;BME280;5097;43.260;27.812;2023-09-08T09:19:03;100589.97;;;25.81;67.75
10115;BME280;5097;43.260;27.812;2023-09-08T09:21:48;100592.16;;;25.69;65.38
10115;BME280;5097;43.260;27.812;2023-09-08T09:24:36;100591.94;;;25.29;67.55
10115;BME280;5097;43.260;27.812;2023-09-08T09:27:23;100593.31;;;25.33;66.03
10115;BME280;5097;43.260;27.812;2023-09-08T09:30:08;100587.59;;;25.45;68.83
10115;BME280;5097;43.260;27.812;2023-09-08T09:33:00;100582.69;;;25.65;67.61
10115;BME280;5097;43.260;27.812;2023-09-08T09:35:47;100558.53;;;25.55;66.27
10115;BME280;5097;43.260;27.812;2023-09-08T09:38:34;100578.03;;;26.39;63.93
10115;BME280;5097;43.260;27.812;2023-09-08T09:41:22;100538.34;;;26.15;62.45
10115;BME280;5097;43.260;27.812;2023-09-08T09:44:06;100568.31;;;25.39;65.12
10115;BME280;5097;43.260;27.812;2023-09-08T09:46:52;100563.91;;;25.38;65.60
10115;BME280;5097;43.260;27.812;2023-09-08T09:49:41;100567.59;;;25.21;66.12
10115;BME280;5097;43.260;27.812;2023-09-08T09:52:26;100560.50;;;25.28;67.10
10115;BME280;5097;43.260;27.812;2023-09-08T09:55:10;100570.69;;;25.59;66.76
10115;BME280;5097;43.260;27.812;2023-09-08T09:57:57;100561.56;;;25.60;66.01
10115;BME280;5097;43.260;27.812;2023-09-08T10:00:43;100551.38;;;25.95;64.54
10115;BME280;5097;43.260;27.812;2023-09-08T10:03:31;100551.41;;;25.79;55.49
10115;BME280;5097;43.260;27.812;2023-09-08T10:06:16;100557.78;;;26.19;55.33
10115;BME280;5097;43.260;27.812;2023-09-08T10:09:04;100564.88;;;26.36;54.67
10115;BME280;5097;43.260;27.812;2023-09-08T10:11:53;100558.06;;;26.40;53.42
10115;BME280;5097;43.260;27.812;2023-09-08T10:14:41;100553.63;;;26.48;50.73
10115;BME280;5097;43.260;27.812;2023-09-08T10:17:27;100532.03;;;27.02;51.30
10115;BME280;5097;43.260;27.812;2023-09-08T10:20:14;100529.75;;;27.14;50.58
10115;BME280;5097;43.260;27.812;2023-09-08T10:23:06;100543.66;;;26.88;50.69
10115;BME280;5097;43.260;27.812;2023-09-08T10:25:56;100543.50;;;26.41;50.92
10115;BME280;5097;43.260;27.812;2023-09-08T10:28:45;100550.50;;;26.67;49.77
10115;BME280;5097;43.260;27.812;2023-09-08T10:31:32;100560.03;;;26.55;47.72
10115;BME280;5097;43.260;27.812;2023-09-08T10:34:17;100552.44;;;26.50;46.79
10115;BME280;5097;43.260;27.812;2023-09-08T10:37:02;100551.03;;;26.63;46.85
10115;BME280;5097;43.260;27.812;2023-09-08T10:39:46;100552.53;;;26.73;46.39
10115;BME280;5097;43.260;27.812;2023-09-08T10:42:30;100557.31;;;26.07;48.54
10115;BME280;5097;43.260;27.812;2023-09-08T10:45:15;100575.75;;;25.79;49.08
10115;BME280;5097;43.260;27.812;2023-09-08T10:48:01;100530.13;;;25.51;49.10
10115;BME280;5097;43.260;27.812;2023-09-08T10:50:46;100545.31;;;26.09;49.17
10115;BME280;5097;43.260;27.812;2023-09-08T10:53:30;100540.44;;;26.45;47.12
10115;BME280;5097;43.260;27.812;2023-09-08T10:56:14;100541.38;;;26.12;46.95
10115;BME280;5097;43.260;27.812;2023-09-08T10:59:00;100552.72;;;26.64;46.48
10115;BME280;5097;43.260;27.812;2023-09-08T11:01:44;100555.97;;;26.59;45.74
10115;BME280;5097;43.260;27.812;2023-09-08T11:04:30;100537.41;;;27.10;44.88
10115;BME280;5097;43.260;27.812;2023-09-08T11:07:15;100538.38;;;27.64;44.96
10115;BME280;5097;43.260;27.812;2023-09-08T11:09:59;100527.41;;;27.34;45.26
10115;BME280;5097;43.260;27.812;2023-09-08T11:12:44;100522.69;;;27.51;45.31
10115;BME280;5097;43.260;27.812;2023-09-08T11:15:29;100531.16;;;28.09;44.11
10115;BME280;5097;43.260;27.812;2023-09-08T11:18:13;100549.63;;;27.30;44.76
10115;BME280;5097;43.260;27.812;2023-09-08T11:21:00;100529.88;;;26.18;46.94
10115;BME280;5097;43.260;27.812;2023-09-08T11:23:45;100563.75;;;25.73;46.98
10115;BME280;5097;43.260;27.812;2023-09-08T11:26:32;100531.16;;;25.41;47.53
10115;BME280;5097;43.260;27.812;2023-09-08T11:29:17;100522.66;;;25.20;48.84
10115;BME280;5097;43.260;27.812;2023-09-08T11:32:02;100549.84;;;26.09;47.97
10115;BME280;5097;43.260;27.812;2023-09-08T11:34:47;100553.06;;;25.88;48.40
10115;BME280;5097;43.260;27.812;2023-09-08T11:37:34;100553.09;;;25.71;49.26
10115;BME280;5097;43.260;27.812;2023-09-08T11:40:18;100519.97;;;25.69;49.47
10115;BME280;5097;43.260;27.812;2023-09-08T11:43:05;100498.16;;;25.71;49.73
10115;BME280;5097;43.260;27.812;2023-09-08T11:45:49;100528.72;;;26.13;48.77
10115;BME280;5097;43.260;27.812;2023-09-08T11:48:34;100526.50;;;26.08;48.80
10115;BME280;5097;43.260;27.812;2023-09-08T11:51:22;100495.34;;;26.12;48.50
10115;BME280;5097;43.260;27.812;2023-09-08T11:54:08;100489.78;;;26.05;47.71
10115;BME280;5097;43.260;27.812;2023-09-08T11:56:52;100510.06;;;26.57;47.60
10115;BME280;5097;43.260;27.812;2023-09-08T11:59:38;100532.59;;;26.58;47.72
10115;BME280;5097;43.260;27.812;2023-09-08T12:02:23;100493.91;;;26.41;47.53
10115;BME280;5097;43.260;27.812;2023-09-08T12:05:11;100521.72;;;26.66;48.69
10115;BME280;5097;43.260;27.812;2023-09-08T12:07:58;100493.09;;;26.95;47.09
10115;BME280;5097;43.260;27.812;2023-09-08T12:10:44;100482.50;;;26.54;48.03
10115;BME280;5097;43.260;27.812;2023-09-08T12:13:28;100522.63;;;26.50;49.10
10115;BME280;5097;43.260;27.812;2023-09-08T12:16:18;100480.41;;;26.33;48.44
10115;BME280;5097;43.260;27.812;2023-09-08T12:19:05;100512.75;;;26.26;48.64
10115;BME280;5097;43.260;27.812;2023-09-08T12:21:55;100513.59;;;26.66;48.61
10115;BME280;5097;43.260;27.812;2023-09-08T12:24:46;100472.00;;;26.51;47.94
10115;BME280;5097;43.260;27.812;2023-09-08T12:27:36;100482.84;;;26.51;47.88
10115;BME280;5097;43.260;27.812;2023-09-08T12:30:22;100492.75;;;26.67;47.44
10115;BME280;5097;43.260;27.812;2023-09-08T12:33:12;100459.00;;;26.46;48.81
10115;BME280;5097;43.260;27.812;2023-09-08T12:35:57;100513.69;;;26.50;48.98
10115;BME280;5097;43.260;27.812;2023-09-08T12:38:46;100491.69;;;26.45;48.05
10115;BME280;5097;43.260;27.812;2023-09-08T12:41:31;100498.38;;;26.17;47.80
10115;BME280;5097;43.260;27.812;2023-09-08T12:44:17;100472.91;;;25.79;49.47
10115;BME280;5097;43.260;27.812;2023-09-08T12:47:01;100468.69;;;25.84;48.95
10115;BME280;5097;43.260;27.812;2023-09-08T12:49:45;100464.69;;;26.20;48.21
10115;BME280;5097;43.260;27.812;2023-09-08T12:52:29;100508.03;;;26.20;47.07
10115;BME280;5097;43.260;27.812;2023-09-08T12:55:14;100467.91;;;25.59;46.91
10115;BME280;5097;43.260;27.812;2023-09-08T12:57:58;100509.63;;;25.89;46.26
10115;BME280;5097;43.260;27.812;2023-09-08T13:00:44;100497.97;;;25.81;46.01
10115;BME280;5097;43.260;27.812;2023-09-08T13:03:28;100464.00;;;25.70;45.39
10115;BME280;5097;43.260;27.812;2023-09-08T13:06:12;100513.38;;;25.31;46.32
10115;BME280;5097;43.260;27.812;2023-09-08T13:08:56;100494.28;;;25.40;46.44
10115;BME280;5097;43.260;27.812;2023-09-08T13:11:41;100478.06;;;25.49;46.16
10115;BME280;5097;43.260;27.812;2023-09-08T13:14:26;100481.72;;;25.81;45.76
10115;BME280;5097;43.260;27.812;2023-09-08T13:17:12;100496.56;;;26.09;46.59
10115;BME280;5097;43.260;27.812;2023-09-08T13:19:57;100510.44;;;25.98;47.60
10115;BME280;5097;43.260;27.812;2023-09-08T13:22:41;100469.56;;;25.76;48.20
10115;BME280;5097;43.260;27.812;2023-09-08T13:25:26;100496.25;;;25.80;46.92
10115;BME280;5097;43.260;27.812;2023-09-08T13:28:10;100452.03;;;25.06;46.55
10115;BME280;5097;43.260;27.812;2023-09-08T13:30:55;100495.47;;;25.63;46.04
10115;BME280;5097;43.260;27.812;2023-09-08T13:33:40;100459.66;;;25.36;46.15
10115;BME280;5097;43.260;27.812;2023-09-08T13:36:24;100476.34;;;25.23;46.17
10115;BME280;5097;43.260;27.812;2023-09-08T13:39:08;100451.16;;;25.14;45.00
10115;BME280;5097;43.260;27.812;2023-09-08T13:41:54;100487.81;;;25.17;45.24
10115;BME280;5097;43.260;27.812;2023-09-08T13:44:38;100487.88;;;25.41;45.14
10115;BME280;5097;43.260;27.812;2023-09-08T13:47:22;100441.88;;;25.17;45.71
10115;BME280;5097;43.260;27.812;2023-09-08T13:50:09;100497.59;;;25.84;44.89
10115;BME280;5097;43.260;27.812;2023-09-08T13:52:55;100457.75;;;25.69;44.39
10115;BME280;5097;43.260;27.812;2023-09-08T13:55:41;100477.31;;;26.04;43.22
10115;BME280;5097;43.260;27.812;2023-09-08T13:58:26;100486.13;;;25.65;43.68
10115;BME280;5097;43.260;27.812;2023-09-08T14:01:29;100472.97;;;25.29;44.63
10115;BME280;5097;43.260;27.812;2023-09-08T14:04:16;100498.63;;;25.74;44.46
10115;BME280;5097;43.260;27.812;2023-09-08T14:07:08;100498.25;;;26.10;43.75
10115;BME280;5097;43.260;27.812;2023-09-08T14:09:55;100499.81;;;25.72;43.85
10115;BME280;5097;43.260;27.812;2023-09-08T14:12:45;100497.66;;;25.67;44.01
10115;BME280;5097;43.260;27.812;2023-09-08T14:15:29;100482.13;;;25.45;45.04
10115;BME280;5097;43.260;27.812;2023-09-08T14:18:13;100465.84;;;25.61;44.32
10115;BME280;5097;43.260;27.812;2023-09-08T14:20:57;100495.19;;;26.22;44.16
10115;BME280;5097;43.260;27.812;2023-09-08T14:23:43;100497.97;;;25.72;43.49